MDT,Max TemperatureF,Mean TemperatureF,Min TemperatureF,Max Dew PointF,MeanDew PointF,Min DewpointF,Max Humidity, Mean Humidity, Min Humidity, Max Sea Level PressureIn, Mean Sea Level PressureIn, Min Sea Level PressureIn, Max VisibilityMiles, Mean VisibilityMiles, Min VisibilityMiles, Max Wind SpeedMPH, Mean Wind SpeedMPH, Max Gust SpeedMPH,PrecipitationIn, CloudCover, Events, WindDirDegrees
2012-8-1,87,74,60,59,53,47,78,52,25,30.21,30.04,29.96,10,10,10,15,6,18,0.01,2,Rain,215
2012-8-2,85,71,57,59,53,46,90,59,27,30.28,30.02,29.91,10,10,2,21,7,24,0.00,2,Thunderstorm,151
2012-8-3,92,74,56,52,46,35,72,43,14,30.06,29.89,29.79,10,9,0,35,6,48,0.01,1,Rain-Thunderstorm,138
2012-8-4,92,75,58,46,38,17,62,35,7,29.97,29.91,29.84,10,10,10,15,7,17,0.00,0,,122
2012-8-5,93,75,56,47,42,36,55,36,16,30.11,30.05,29.97,10,10,10,33,6,44,T,0,,138
2012-8-6,89,75,60,54,49,45,65,44,22,30.36,30.14,30.05,10,10,10,29,8,35,0.00,1,Thunderstorm,153
2012-8-7,92,75,58,54,49,38,78,47,15,30.17,30.06,29.94,10,10,10,21,7,26,0.00,0,,123
2012-8-8,95,76,57,52,42,23,67,38,8,30.11,30.02,29.95,10,10,10,16,6,21,0.00,0,,148
2012-8-9,95,79,63,52,46,37,56,37,18,30.28,30.06,29.95,10,10,9,28,8,37,T,0,Rain-Thunderstorm,151
2012-8-10,91,75,59,52,47,41,64,42,19,30.18,30.04,29.88,10,10,9,32,8,39,0.00,1,Thunderstorm,159
2012-8-11,90,76,62,54,49,42,67,46,24,30.16,29.97,29.88,10,10,10,17,8,22,T,1,Rain-Thunderstorm,169
2012-8-12,92,75,57,50,45,36,72,44,15,30.19,29.98,29.92,10,10,10,24,7,32,0.00,0,,163
2012-8-13,84,71,58,58,49,42,84,58,31,30.10,30.00,29.93,10,10,4,22,8,28,0.08,3,Rain,52
2012-8-14,82,68,54,57,53,48,100,66,31,30.09,30.01,29.91,10,10,10,13,5,15,0.00,0,,173
2012-8-15,90,72,54,50,44,34,77,46,15,29.98,29.91,29.83,10,10,10,16,7,20,0.00,0,,168
2012-8-16,91,73,54,51,43,33,66,40,13,29.99,29.91,29.84,10,10,8,13,6,15,0.00,0,,150
2012-8-17,88,76,64,47,43,39,52,35,18,30.01,29.91,29.85,10,10,9,14,5,17,0.00,0,,167
2012-8-18,91,74,57,47,42,32,67,40,13,29.97,29.88,29.79,10,10,6,13,7,15,0.00,0,,248
2012-8-19,92,73,53,43,36,27,54,32,10,29.98,29.88,29.79,10,10,10,13,5,16,0.00,0,,139
2012-8-20,83,74,64,52,46,36,58,43,28,29.95,29.89,29.82,10,10,10,20,7,25,T,3,Rain,149
2012-8-21,91,73,54,50,40,26,72,41,10,30.18,29.93,29.83,10,9,3,12,5,14,0.00,0,,130
2012-8-22,79,71,62,58,49,35,59,44,28,29.95,29.90,29.82,10,10,6,17,7,21,0.03,4,Rain,134
2012-8-23,73,66,59,60,57,54,90,72,53,30.18,29.96,29.90,10,9,2,18,6,21,0.46,7,Rain-Thunderstorm,185
2012-8-24,77,68,58,59,56,50,93,70,46,30.17,29.99,29.82,10,9,4,22,2,28,0.15,5,Rain-Thunderstorm,125
2012-8-25,85,69,53,54,47,34,83,50,17,29.98,29.91,29.83,10,10,10,13,6,15,0.00,0,,141
2012-8-26,88,70,52,49,46,39,77,48,18,30.04,29.98,29.91,10,10,10,28,8,36,0.00,0,,152
2012-8-27,87,74,61,54,50,46,64,48,31,30.29,30.09,30.00,10,10,10,21,7,25,T,2,Rain-Thunderstorm,164
2012-8-28,90,74,57,52,49,45,72,47,21,30.17,30.06,29.99,10,10,10,29,8,36,0.00,0,,165
2012-8-29,93,76,58,51,47,36,72,43,14,30.02,29.93,29.83,10,10,10,20,6,23,0.00,0,,167
2012-8-30,90,76,62,50,46,40,60,39,17,30.12,29.89,29.80,10,10,9,35,8,41,0.00,0,Thunderstorm,145
2012-8-31,85,71,56,51,48,43,77,52,26,30.17,29.96,29.90,10,10,10,26,6,36,0.00,0,Thunderstorm,160